sensor_id;sensor_type;location;lat;lon;timestamp;temperature;humidity
10312;DHT22;5201;48.776;9.128;2024-03-23T00:54:08;13.30;99.90
10312;DHT22;5201;48.776;9.128;2024-03-23T00:56:34;13.40;99.90
10312;DHT22;5201;48.776;9.128;2024-03-23T00:59:00;13.40;99.90
10312;DHT22;5201;48.776;9.128;2024-03-23T01:01:25;13.40;99.90
10312;DHT22;5201;48.776;9.128;2024-03-23T01:03:51;13.50;99.90
10312;DHT22;5201;48.776;9.128;2024-03-23T01:06:16;13.40;99.90
10312;DHT22;5201;48.776;9.128;2024-03-23T01:08:42;13.50;99.90
10312;DHT22;5201;48.776;9.128;2024-03-23T01:11:07;13.30;99.90
10312;DHT22;5201;48.776;9.128;2024-03-23T01:13:33;13.60;99.90
10312;DHT22;5201;48.776;9.128;2024-03-23T01:15:59;13.60;99.90
10312;DHT22;5201;48.776;9.128;2024-03-23T01:18:25;13.50;99.90
10312;DHT22;5201;48.776;9.128;2024-03-23T01:20:51;13.40;99.90
10312;DHT22;5201;48.776;9.128;2024-03-23T01:23:17;13.40;99.90
10312;DHT22;5201;48.776;9.128;2024-03-23T01:25:43;13.90;99.90
10312;DHT22;5201;48.776;9.128;2024-03-23T01:28:08;13.40;99.90
10312;DHT22;5201;48.776;9.128;2024-03-23T01:30:35;13.50;99.90
10312;DHT22;5201;48.776;9.128;2024-03-23T01:33:01;13.40;99.90
10312;DHT22;5201;48.776;9.128;2024-03-23T01:35:28;13.40;99.90
10312;DHT22;5201;48.776;9.128;2024-03-23T01:37:53;13.10;99.90
10312;DHT22;5201;48.776;9.128;2024-03-23T01:40:19;13.00;99.90
10312;DHT22;5201;48.776;9.128;2024-03-23T01:42:58;13.10;99.90
10312;DHT22;5201;48.776;9.128;2024-03-23T01:45:24;13.10;99.90
10312;DHT22;5201;48.776;9.128;2024-03-23T01:47:51;13.30;99.90
10312;DHT22;5201;48.776;9.128;2024-03-23T01:50:17;13.20;99.90
10312;DHT22;5201;48.776;9.128;2024-03-23T01:52:42;12.80;99.90
10312;DHT22;5201;48.776;9.128;2024-03-23T01:55:08;12.80;99.90
10312;DHT22;5201;48.776;9.128;2024-03-23T01:57:34;12.70;99.90
10312;DHT22;5201;48.776;9.128;2024-03-23T01:59:59;12.80;99.90
10312;DHT22;5201;48.776;9.128;2024-03-23T02:02:25;12.70;99.90
10312;DHT22;5201;48.776;9.128;2024-03-23T02:04:51;12.70;99.90
10312;DHT22;5201;48.776;9.128;2024-03-23T02:07:16;12.70;99.90
10312;DHT22;5201;48.776;9.128;2024-03-23T02:09:43;12.70;99.90
10312;DHT22;5201;48.776;9.128;2024-03-23T02:12:09;12.90;99.90
10312;DHT22;5201;48.776;9.128;2024-03-23T02:14:35;13.00;99.90
10312;DHT22;5201;48.776;9.128;2024-03-23T02:17:00;13.10;99.90
10312;DHT22;5201;48.776;9.128;2024-03-23T02:19:26;13.10;99.90
10312;DHT22;5201;48.776;9.128;2024-03-23T02:21:51;13.00;99.90
10312;DHT22;5201;48.776;9.128;2024-03-23T02:24:17;12.90;99.90
10312;DHT22;5201;48.776;9.128;2024-03-23T02:26:42;12.80;99.90
10312;DHT22;5201;48.776;9.128;2024-03-23T02:29:08;12.60;99.90
10312;DHT22;5201;48.776;9.128;2024-03-23T02:31:35;12.50;99.90
10312;DHT22;5201;48.776;9.128;2024-03-23T02:34:01;12.50;99.90
10312;DHT22;5201;48.776;9.128;2024-03-23T02:36:26;12.40;99.90
10312;DHT22;5201;48.776;9.128;2024-03-23T02:38:52;12.40;99.90
10312;DHT22;5201;48.776;9.128;2024-03-23T02:41:17;12.50;99.90
10312;DHT22;5201;48.776;9.128;2024-03-23T02:43:51;12.90;99.90
10312;DHT22;5201;48.776;9.128;2024-03-23T02:46:17;12.60;99.90
10312;DHT22;5201;48.776;9.128;2024-03-23T02:48:43;12.40;99.90
10312;DHT22;5201;48.776;9.128;2024-03-23T02:51:08;12.50;99.90
10312;DHT22;5201;48.776;9.128;2024-03-23T02:53:34;12.50;99.90
10312;DHT22;5201;48.776;9.128;2024-03-23T02:56:00;12.80;99.90
10312;DHT22;5201;48.776;9.128;2024-03-23T02:58:25;12.40;99.90
10312;DHT22;5201;48.776;9.128;2024-03-23T03:00:51;12.40;99.90
10312;DHT22;5201;48.776;9.128;2024-03-23T03:03:16;12.50;99.90
10312;DHT22;5201;48.776;9.128;2024-03-23T03:05:42;12.60;99.90
10312;DHT22;5201;48.776;9.128;2024-03-23T03:08:08;12.90;99.90
10312;DHT22;5201;48.776;9.128;2024-03-23T03:10:34;12.70;99.90
10312;DHT22;5201;48.776;9.128;2024-03-23T03:13:02;12.70;99.90
10312;DHT22;5201;48.776;9.128;2024-03-23T03:15:27;12.80;99.90
10312;DHT22;5201;48.776;9.128;2024-03-23T03:17:53;12.90;99.90
10312;DHT22;5201;48.776;9.128;2024-03-23T03:20:19;12.90;99.90
10312;DHT22;5201;48.776;9.128;2024-03-23T03:22:44;12.70;99.90
10312;DHT22;5201;48.776;9.128;2024-03-23T03:25:10;12.70;99.90
10312;DHT22;5201;48.776;9.128;2024-03-23T03:27:35;12.60;99.90
10312;DHT22;5201;48.776;9.128;2024-03-23T03:30:01;12.60;99.90
10312;DHT22;5201;48.776;9.128;2024-03-23T03:32:31;12.50;99.90
10312;DHT22;5201;48.776;9.128;2024-03-23T03:34:57;12.50;99.90
10312;DHT22;5201;48.776;9.128;2024-03-23T03:37:23;13.00;99.90
10312;DHT22;5201;48.776;9.128;2024-03-23T03:39:48;12.60;99.90
10312;DHT22;5201;48.776;9.128;2024-03-23T03:42:14;12.70;99.90
10312;DHT22;5201;48.776;9.128;2024-03-23T03:44:40;12.70;99.90
10312;DHT22;5201;48.776;9.128;2024-03-23T03:47:06;12.70;99.90
10312;DHT22;5201;48.776;9.128;2024-03-23T03:49:31;12.80;99.90
10312;DHT22;5201;48.776;9.128;2024-03-23T03:51:57;12.70;99.90
10312;DHT22;5201;48.776;9.128;2024-03-23T03:54:23;12.70;99.90
10312;DHT22;5201;48.776;9.128;2024-03-23T03:56:48;12.70;99.90
10312;DHT22;5201;48.776;9.128;2024-03-23T03:59:14;12.70;99.90
10312;DHT22;5201;48.776;9.128;2024-03-23T04:01:40;12.70;99.90
10312;DHT22;5201;48.776;9.128;2024-03-23T04:04:05;12.60;99.90
10312;DHT22;5201;48.776;9.128;2024-03-23T04:06:32;12.60;99.90
10312;DHT22;5201;48.776;9.128;2024-03-23T04:08:58;12.70;99.90
10312;DHT22;5201;48.776;9.128;2024-03-23T04:11:24;12.70;99.90
10312;DHT22;5201;48.776;9.128;2024-03-23T04:13:49;12.70;99.90
10312;DHT22;5201;48.776;9.128;2024-03-23T04:16:28;12.70;99.90
10312;DHT22;5201;48.776;9.128;2024-03-23T04:18:53;12.80;99.90
10312;DHT22;5201;48.776;9.128;2024-03-23T04:21:20;12.80;99.90
10312;DHT22;5201;48.776;9.128;2024-03-23T04:23:46;12.90;99.90
10312;DHT22;5201;48.776;9.128;2024-03-23T04:26:11;13.00;99.90
10312;DHT22;5201;48.776;9.128;2024-03-23T04:28:37;13.00;99.90
10312;DHT22;5201;48.776;9.128;2024-03-23T04:31:06;13.10;99.90
10312;DHT22;5201;48.776;9.128;2024-03-23T04:33:31;13.00;99.90
10312;DHT22;5201;48.776;9.128;2024-03-23T04:35:57;13.20;99.90
10312;DHT22;5201;48.776;9.128;2024-03-23T04:38:23;13.10;99.90
10312;DHT22;5201;48.776;9.128;2024-03-23T04:40:59;13.00;99.90
10312;DHT22;5201;48.776;9.128;2024-03-23T04:43:26;12.80;99.90
10312;DHT22;5201;48.776;9.128;2024-03-23T04:45:51;12.70;99.90
10312;DHT22;5201;48.776;9.128;2024-03-23T04:48:20;12.50;99.90
10312;DHT22;5201;48.776;9.128;2024-03-23T04:50:45;12.80;99.90
10312;DHT22;5201;48.776;9.128;2024-03-23T04:53:11;12.40;99.90
10312;DHT22;5201;48.776;9.128;2024-03-23T04:55:36;12.40;99.90
10312;DHT22;5201;48.776;9.128;2024-03-23T04:58:02;12.40;99.90
10312;DHT22;5201;48.776;9.128;2024-03-23T05:00:28;12.20;99.90
10312;DHT22;5201;48.776;9.128;2024-03-23T05:02:54;12.30;99.90
10312;DHT22;5201;48.776;9.128;2024-03-23T05:05:19;12.30;99.90
10312;DHT22;5201;48.776;9.128;2024-03-23T05:07:45;12.20;99.90
10312;DHT22;5201;48.776;9.128;2024-03-23T05:10:10;12.30;99.90
10312;DHT22;5201;48.776;9.128;2024-03-23T05:12:39;12.10;99.90
10312;DHT22;5201;48.776;9.128;2024-03-23T05:15:06;12.00;99.90
10312;DHT22;5201;48.776;9.128;2024-03-23T05:17:32;11.90;99.90
10312;DHT22;5201;48.776;9.128;2024-03-23T05:19:58;11.80;99.90
10312;DHT22;5201;48.776;9.128;2024-03-23T05:22:24;11.70;99.90
10312;DHT22;5201;48.776;9.128;2024-03-23T05:24:49;11.60;99.90
10312;DHT22;5201;48.776;9.128;2024-03-23T05:27:15;11.50;99.90
10312;DHT22;5201;48.776;9.128;2024-03-23T05:29:40;11.90;99.90
10312;DHT22;5201;48.776;9.128;2024-03-23T05:32:07;11.50;99.90
10312;DHT22;5201;48.776;9.128;2024-03-23T05:34:33;11.50;99.90
10312;DHT22;5201;48.776;9.128;2024-03-23T05:36:59;11.40;99.90
10312;DHT22;5201;48.776;9.128;2024-03-23T05:39:24;11.40;99.90
10312;DHT22;5201;48.776;9.128;2024-03-23T05:41:50;11.30;99.90
10312;DHT22;5201;48.776;9.128;2024-03-23T05:44:16;11.50;99.90
10312;DHT22;5201;48.776;9.128;2024-03-23T05:46:41;11.30;99.90
10312;DHT22;5201;48.776;9.128;2024-03-23T05:49:07;11.20;99.90
10312;DHT22;5201;48.776;9.128;2024-03-23T05:51:33;11.00;99.90
10312;DHT22;5201;48.776;9.128;2024-03-23T05:53:59;11.00;99.90
10312;DHT22;5201;48.776;9.128;2024-03-23T05:56:24;10.90;99.90
10312;DHT22;5201;48.776;9.128;2024-03-23T05:58:51;10.90;99.90
10312;DHT22;5201;48.776;9.128;2024-03-23T06:01:17;10.70;99.90
10312;DHT22;5201;48.776;9.128;2024-03-23T06:03:43;10.50;99.90
10312;DHT22;5201;48.776;9.128;2024-03-23T06:06:10;10.50;99.90
10312;DHT22;5201;48.776;9.128;2024-03-23T06:08:37;10.40;99.90
10312;DHT22;5201;48.776;9.128;2024-03-23T06:11:04;10.30;99.90
10312;DHT22;5201;48.776;9.128;2024-03-23T06:13:32;10.60;99.90
10312;DHT22;5201;48.776;9.128;2024-03-23T06:15:57;10.10;99.90
10312;DHT22;5201;48.776;9.128;2024-03-23T06:18:24;10.10;99.90
10312;DHT22;5201;48.776;9.128;2024-03-23T06:20:49;10.10;99.90
10312;DHT22;5201;48.776;9.128;2024-03-23T06:23:15;10.20;99.90
10312;DHT22;5201;48.776;9.128;2024-03-23T06:25:42;10.20;99.90
10312;DHT22;5201;48.776;9.128;2024-03-23T06:28:08;10.30;99.90
10312;DHT22;5201;48.776;9.128;2024-03-23T06:30:34;10.50;99.90
10312;DHT22;5201;48.776;9.128;2024-03-23T06:32:59;10.30;99.90
10312;DHT22;5201;48.776;9.128;2024-03-23T06:35:25;10.20;99.90
10312;DHT22;5201;48.776;9.128;2024-03-23T06:37:50;10.00;99.90
10312;DHT22;5201;48.776;9.128;2024-03-23T06:40:16;9.90;99.90
10312;DHT22;5201;48.776;9.128;2024-03-23T06:42:41;11.50;99.90
10312;DHT22;5201;48.776;9.128;2024-03-23T06:45:07;9.90;99.90
10312;DHT22;5201;48.776;9.128;2024-03-23T06:47:33;9.90;99.90
10312;DHT22;5201;48.776;9.128;2024-03-23T06:50:00;9.90;99.90
10312;DHT22;5201;48.776;9.128;2024-03-23T06:52:29;10.00;99.90
10312;DHT22;5201;48.776;9.128;2024-03-23T06:54:55;10.20;99.90
10312;DHT22;5201;48.776;9.128;2024-03-23T06:57:20;10.00;99.90
10312;DHT22;5201;48.776;9.128;2024-03-23T06:59:46;9.70;99.90
10312;DHT22;5201;48.776;9.128;2024-03-23T07:02:11;9.70;99.90
10312;DHT22;5201;48.776;9.128;2024-03-23T07:04:37;9.70;99.90
10312;DHT22;5201;48.776;9.128;2024-03-23T07:07:05;9.60;99.90
10312;DHT22;5201;48.776;9.128;2024-03-23T07:09:31;9.50;99.90
10312;DHT22;5201;48.776;9.128;2024-03-23T07:11:57;9.50;99.90
10312;DHT22;5201;48.776;9.128;2024-03-23T07:14:23;9.50;99.90
10312;DHT22;5201;48.776;9.128;2024-03-23T07:16:50;9.40;99.90
10312;DHT22;5201;48.776;9.128;2024-03-23T07:19:16;9.30;99.90
10312;DHT22;5201;48.776;9.128;2024-03-23T07:21:42;9.20;99.90
10312;DHT22;5201;48.776;9.128;2024-03-23T07:24:08;9.50;99.90
10312;DHT22;5201;48.776;9.128;2024-03-23T07:26:34;9.80;99.90
10312;DHT22;5201;48.776;9.128;2024-03-23T07:28:59;10.30;99.90
10312;DHT22;5201;48.776;9.128;2024-03-23T07:31:25;10.20;99.90
10312;DHT22;5201;48.776;9.128;2024-03-23T07:33:51;10.30;99.90
10312;DHT22;5201;48.776;9.128;2024-03-23T07:36:16;10.30;99.90
10312;DHT22;5201;48.776;9.128;2024-03-23T07:38:43;10.10;99.90
10312;DHT22;5201;48.776;9.128;2024-03-23T07:41:12;10.20;99.90
10312;DHT22;5201;48.776;9.128;2024-03-23T07:43:38;10.10;99.90
10312;DHT22;5201;48.776;9.128;2024-03-23T07:46:04;9.60;99.90
10312;DHT22;5201;48.776;9.128;2024-03-23T07:48:30;10.00;99.90
10312;DHT22;5201;48.776;9.128;2024-03-23T07:51:17;9.90;99.90
10312;DHT22;5201;48.776;9.128;2024-03-23T07:53:44;10.00;99.90
10312;DHT22;5201;48.776;9.128;2024-03-23T07:56:14;9.70;99.90
10312;DHT22;5201;48.776;9.128;2024-03-23T07:58:41;9.60;99.90
10312;DHT22;5201;48.776;9.128;2024-03-23T08:01:08;9.70;99.90
10312;DHT22;5201;48.776;9.128;2024-03-23T08:03:35;9.60;99.90
10312;DHT22;5201;48.776;9.128;2024-03-23T08:06:08;9.30;99.90
10312;DHT22;5201;48.776;9.128;2024-03-23T08:08:35;9.20;99.90
10312;DHT22;5201;48.776;9.128;2024-03-23T08:11:00;9.00;99.90
10312;DHT22;5201;48.776;9.128;2024-03-23T08:13:26;8.90;99.90
10312;DHT22;5201;48.776;9.128;2024-03-23T08:15:52;9.00;99.90
10312;DHT22;5201;48.776;9.128;2024-03-23T08:18:21;7.20;99.90
10312;DHT22;5201;48.776;9.128;2024-03-23T08:20:46;8.90;99.90
10312;DHT22;5201;48.776;9.128;2024-03-23T08:23:12;9.40;99.90
10312;DHT22;5201;48.776;9.128;2024-03-23T08:25:37;9.20;99.90
10312;DHT22;5201;48.776;9.128;2024-03-23T08:28:03;9.40;99.90
10312;DHT22;5201;48.776;9.128;2024-03-23T08:30:29;9.40;99.90
10312;DHT22;5201;48.776;9.128;2024-03-23T08:32:55;9.50;99.90
10312;DHT22;5201;48.776;9.128;2024-03-23T08:35:20;9.90;99.90
10312;DHT22;5201;48.776;9.128;2024-03-23T08:37:46;9.60;99.90
10312;DHT22;5201;48.776;9.128;2024-03-23T08:40:12;9.70;99.90
10312;DHT22;5201;48.776;9.128;2024-03-23T08:42:37;9.60;99.90
10312;DHT22;5201;48.776;9.128;2024-03-23T08:45:03;9.70;99.90
10312;DHT22;5201;48.776;9.128;2024-03-23T08:47:29;9.90;99.90
10312;DHT22;5201;48.776;9.128;2024-03-23T08:49:54;10.30;99.90
10312;DHT22;5201;48.776;9.128;2024-03-23T08:52:20;10.20;99.90
10312;DHT22;5201;48.776;9.128;2024-03-23T08:54:48;10.20;99.90
10312;DHT22;5201;48.776;9.128;2024-03-23T08:57:14;10.40;99.90
10312;DHT22;5201;48.776;9.128;2024-03-23T08:59:39;10.60;99.90
10312;DHT22;5201;48.776;9.128;2024-03-23T09:02:05;11.00;99.90
10312;DHT22;5201;48.776;9.128;2024-03-23T09:04:30;11.20;99.90
10312;DHT22;5201;48.776;9.128;2024-03-23T09:06:56;11.20;99.90
10312;DHT22;5201;48.776;9.128;2024-03-23T09:09:24;10.70;99.90
10312;DHT22;5201;48.776;9.128;2024-03-23T09:11:49;10.40;99.90
10312;DHT22;5201;48.776;9.128;2024-03-23T09:14:15;10.20;99.90
10312;DHT22;5201;48.776;9.128;2024-03-23T09:16:40;10.20;99.90
10312;DHT22;5201;48.776;9.128;2024-03-23T09:19:06;10.00;99.90
10312;DHT22;5201;48.776;9.128;2024-03-23T09:21:32;10.00;99.90
10312;DHT22;5201;48.776;9.128;2024-03-23T09:23:57;10.00;99.90
10312;DHT22;5201;48.776;9.128;2024-03-23T09:26:23;10.10;99.90
10312;DHT22;5201;48.776;9.128;2024-03-23T09:28:51;10.10;99.90
10312;DHT22;5201;48.776;9.128;2024-03-23T09:31:17;10.20;99.90
10312;DHT22;5201;48.776;9.128;2024-03-23T09:33:43;10.60;99.90
10312;DHT22;5201;48.776;9.128;2024-03-23T09:36:09;10.80;99.90
10312;DHT22;5201;48.776;9.128;2024-03-23T09:38:35;11.00;99.90
10312;DHT22;5201;48.776;9.128;2024-03-23T09:41:06;11.00;99.90
10312;DHT22;5201;48.776;9.128;2024-03-23T09:43:32;10.90;99.90
10312;DHT22;5201;48.776;9.128;2024-03-23T09:45:57;10.90;99.90
10312;DHT22;5201;48.776;9.128;2024-03-23T09:48:23;10.80;99.90
10312;DHT22;5201;48.776;9.128;2024-03-23T09:50:49;10.90;99.90
10312;DHT22;5201;48.776;9.128;2024-03-23T09:53:14;11.10;99.90
10312;DHT22;5201;48.776;9.128;2024-03-23T09:55:41;11.10;99.90
10312;DHT22;5201;48.776;9.128;2024-03-23T09:58:08;11.40;99.90
10312;DHT22;5201;48.776;9.128;2024-03-23T10:00:34;11.80;99.90
10312;DHT22;5201;48.776;9.128;2024-03-23T10:03:00;11.80;99.90
10312;DHT22;5201;48.776;9.128;2024-03-23T10:05:29;11.50;99.90
10312;DHT22;5201;48.776;9.128;2024-03-23T10:07:56;11.40;99.90
10312;DHT22;5201;48.776;9.128;2024-03-23T10:10:25;10.60;99.90
10312;DHT22;5201;48.776;9.128;2024-03-23T10:12:51;10.30;99.90
10312;DHT22;5201;48.776;9.128;2024-03-23T10:15:21;10.40;99.90
10312;DHT22;5201;48.776;9.128;2024-03-23T10:17:47;10.40;99.90
10312;DHT22;5201;48.776;9.128;2024-03-23T10:20:13;10.40;99.90
10312;DHT22;5201;48.776;9.128;2024-03-23T10:22:44;10.30;99.90
10312;DHT22;5201;48.776;9.128;2024-03-23T10:25:10;10.40;99.90
10312;DHT22;5201;48.776;9.128;2024-03-23T10:27:36;10.40;99.90
10312;DHT22;5201;48.776;9.128;2024-03-23T10:32:35;10.50;99.90
10312;DHT22;5201;48.776;9.128;2024-03-23T10:35:20;10.50;99.90
10312;DHT22;5201;48.776;9.128;2024-03-23T10:37:49;10.40;99.90
10312;DHT22;5201;48.776;9.128;2024-03-23T10:40:17;10.40;99.90
10312;DHT22;5201;48.776;9.128;2024-03-23T10:42:44;10.50;99.90
10312;DHT22;5201;48.776;9.128;2024-03-23T10:45:10;10.50;99.90
10312;DHT22;5201;48.776;9.128;2024-03-23T10:47:36;10.40;99.90
10312;DHT22;5201;48.776;9.128;2024-03-23T10:50:06;10.40;99.90
10312;DHT22;5201;48.776;9.128;2024-03-23T10:52:35;10.30;99.90
10312;DHT22;5201;48.776;9.128;2024-03-23T10:55:03;10.10;99.90
10312;DHT22;5201;48.776;9.128;2024-03-23T10:57:40;9.70;99.90
10312;DHT22;5201;48.776;9.128;2024-03-23T11:00:07;8.60;99.90
10312;DHT22;5201;48.776;9.128;2024-03-23T11:02:34;8.40;99.90
10312;DHT22;5201;48.776;9.128;2024-03-23T11:04:59;7.80;99.90
10312;DHT22;5201;48.776;9.128;2024-03-23T11:07:31;7.60;99.90
10312;DHT22;5201;48.776;9.128;2024-03-23T11:09:58;7.10;99.90
10312;DHT22;5201;48.776;9.128;2024-03-23T11:15:05;7.60;99.90
10312;DHT22;5201;48.776;9.128;2024-03-23T11:17:31;8.10;99.90
10312;DHT22;5201;48.776;9.128;2024-03-23T11:22:45;8.60;99.90
10312;DHT22;5201;48.776;9.128;2024-03-23T11:25:20;8.90;99.90
10312;DHT22;5201;48.776;9.128;2024-03-23T11:27:51;9.10;99.90
10312;DHT22;5201;48.776;9.128;2024-03-23T11:30:18;9.20;99.90
10312;DHT22;5201;48.776;9.128;2024-03-23T11:32:46;9.30;99.90
10312;DHT22;5201;48.776;9.128;2024-03-23T11:38:08;9.20;99.90
10312;DHT22;5201;48.776;9.128;2024-03-23T11:40:36;9.50;99.90
10312;DHT22;5201;48.776;9.128;2024-03-23T11:43:07;9.60;99.90
10312;DHT22;5201;48.776;9.128;2024-03-23T11:45:35;9.80;99.90
10312;DHT22;5201;48.776;9.128;2024-03-23T11:48:15;11.10;99.90
10312;DHT22;5201;48.776;9.128;2024-03-23T11:50:45;10.50;99.90
10312;DHT22;5201;48.776;9.128;2024-03-23T11:58:12;10.40;99.90
10312;DHT22;5201;48.776;9.128;2024-03-23T12:00:38;10.20;99.90
10312;DHT22;5201;48.776;9.128;2024-03-23T12:03:04;8.10;99.90
10312;DHT22;5201;48.776;9.128;2024-03-23T12:05:31;10.00;99.90
10312;DHT22;5201;48.776;9.128;2024-03-23T12:08:21;9.90;99.90
10312;DHT22;5201;48.776;9.128;2024-03-23T12:11:04;10.00;99.90
10312;DHT22;5201;48.776;9.128;2024-03-23T12:13:30;10.20;99.90
10312;DHT22;5201;48.776;9.128;2024-03-23T12:16:18;10.50;99.90
10312;DHT22;5201;48.776;9.128;2024-03-23T12:18:49;10.00;99.90
10312;DHT22;5201;48.776;9.128;2024-03-23T12:21:16;9.80;99.90
10312;DHT22;5201;48.776;9.128;2024-03-23T12:23:43;9.70;99.90
10312;DHT22;5201;48.776;9.128;2024-03-23T12:26:12;9.70;99.90
10312;DHT22;5201;48.776;9.128;2024-03-23T12:28:38;10.00;99.90
10312;DHT22;5201;48.776;9.128;2024-03-23T12:31:04;10.20;99.90
10312;DHT22;5201;48.776;9.128;2024-03-23T12:33:30;10.40;99.90
10312;DHT22;5201;48.776;9.128;2024-03-23T12:35:56;10.70;99.90
10312;DHT22;5201;48.776;9.128;2024-03-23T12:38:22;10.90;99.90
10312;DHT22;5201;48.776;9.128;2024-03-23T12:40:48;11.00;99.90
10312;DHT22;5201;48.776;9.128;2024-03-23T12:43:14;10.70;99.90
10312;DHT22;5201;48.776;9.128;2024-03-23T12:45:40;10.40;99.90
10312;DHT22;5201;48.776;9.128;2024-03-23T12:48:06;10.30;99.90
10312;DHT22;5201;48.776;9.128;2024-03-23T12:50:32;10.10;99.90
10312;DHT22;5201;48.776;9.128;2024-03-23T12:52:58;10.00;99.90
10312;DHT22;5201;48.776;9.128;2024-03-23T12:55:23;10.00;99.90
10312;DHT22;5201;48.776;9.128;2024-03-23T12:57:49;10.00;99.90
10312;DHT22;5201;48.776;9.128;2024-03-23T13:00:15;10.40;99.90
10312;DHT22;5201;48.776;9.128;2024-03-23T13:02:44;10.20;99.90
10312;DHT22;5201;48.776;9.128;2024-03-23T13:05:10;10.30;99.90
10312;DHT22;5201;48.776;9.128;2024-03-23T13:07:35;10.50;99.90
10312;DHT22;5201;48.776;9.128;2024-03-23T13:10:03;11.00;99.90
10312;DHT22;5201;48.776;9.128;2024-03-23T13:12:29;10.60;99.90
10312;DHT22;5201;48.776;9.128;2024-03-23T13:14:54;11.10;99.90
10312;DHT22;5201;48.776;9.128;2024-03-23T13:17:20;10.50;99.90
10312;DHT22;5201;48.776;9.128;2024-03-23T13:19:46;10.60;99.90
10312;DHT22;5201;48.776;9.128;2024-03-23T13:22:11;10.60;99.90
10312;DHT22;5201;48.776;9.128;2024-03-23T13:24:37;10.50;99.90
10312;DHT22;5201;48.776;9.128;2024-03-23T13:27:03;10.50;99.90
10312;DHT22;5201;48.776;9.128;2024-03-23T13:29:30;10.20;99.90
10312;DHT22;5201;48.776;9.128;2024-03-23T13:31:56;10.30;99.90
10312;DHT22;5201;48.776;9.128;2024-03-23T13:34:22;10.50;99.90
10312;DHT22;5201;48.776;9.128;2024-03-23T13:36:47;10.40;99.90
10312;DHT22;5201;48.776;9.128;2024-03-23T13:39:14;10.50;99.90
10312;DHT22;5201;48.776;9.128;2024-03-23T13:41:41;10.00;99.90
10312;DHT22;5201;48.776;9.128;2024-03-23T13:44:08;10.20;99.90
10312;DHT22;5201;48.776;9.128;2024-03-23T13:46:36;10.70;99.90
10312;DHT22;5201;48.776;9.128;2024-03-23T13:49:01;10.20;99.90
10312;DHT22;5201;48.776;9.128;2024-03-23T13:51:27;10.80;99.90
10312;DHT22;5201;48.776;9.128;2024-03-23T13:53:56;10.30;99.90
10312;DHT22;5201;48.776;9.128;2024-03-23T13:56:22;10.40;99.90
10312;DHT22;5201;48.776;9.128;2024-03-23T13:58:48;10.30;99.90
10312;DHT22;5201;48.776;9.128;2024-03-23T14:01:14;10.40;99.90
10312;DHT22;5201;48.776;9.128;2024-03-23T14:03:41;11.20;99.90
10312;DHT22;5201;48.776;9.128;2024-03-23T14:06:07;10.30;99.90
10312;DHT22;5201;48.776;9.128;2024-03-23T14:08:36;10.40;99.90
10312;DHT22;5201;48.776;9.128;2024-03-23T14:11:05;10.20;99.90
10312;DHT22;5201;48.776;9.128;2024-03-23T14:13:31;10.20;99.90
10312;DHT22;5201;48.776;9.128;2024-03-23T14:15:57;9.90;99.90
10312;DHT22;5201;48.776;9.128;2024-03-23T14:18:23;9.40;99.90
10312;DHT22;5201;48.776;9.128;2024-03-23T14:20:50;8.90;99.90
10312;DHT22;5201;48.776;9.128;2024-03-23T14:23:16;8.50;99.90
10312;DHT22;5201;48.776;9.128;2024-03-23T14:25:42;8.20;99.90
10312;DHT22;5201;48.776;9.128;2024-03-23T14:28:07;8.30;99.90
10312;DHT22;5201;48.776;9.128;2024-03-23T14:30:39;8.10;99.90
10312;DHT22;5201;48.776;9.128;2024-03-23T14:33:05;7.80;99.90
10312;DHT22;5201;48.776;9.128;2024-03-23T14:35:30;7.90;99.90
10312;DHT22;5201;48.776;9.128;2024-03-23T14:37:58;7.90;99.90
10312;DHT22;5201;48.776;9.128;2024-03-23T14:40:24;7.70;99.90
10312;DHT22;5201;48.776;9.128;2024-03-23T14:42:53;8.00;99.90
10312;DHT22;5201;48.776;9.128;2024-03-23T14:45:18;7.70;99.90
10312;DHT22;5201;48.776;9.128;2024-03-23T14:47:44;8.40;99.90
10312;DHT22;5201;48.776;9.128;2024-03-23T14:50:10;7.70;99.90
10312;DHT22;5201;48.776;9.128;2024-03-23T14:52:41;7.90;99.90
10312;DHT22;5201;48.776;9.128;2024-03-23T14:55:07;8.20;99.90
10312;DHT22;5201;48.776;9.128;2024-03-23T14:57:34;8.30;99.90
10312;DHT22;5201;48.776;9.128;2024-03-23T15:00:00;8.20;99.90
10312;DHT22;5201;48.776;9.128;2024-03-23T15:02:26;9.50;99.90
10312;DHT22;5201;48.776;9.128;2024-03-23T15:04:53;7.90;99.90
10312;DHT22;5201;48.776;9.128;2024-03-23T15:07:19;7.90;99.90
10312;DHT22;5201;48.776;9.128;2024-03-23T15:09:45;7.90;99.90
10312;DHT22;5201;48.776;9.128;2024-03-23T15:12:10;7.90;99.90
10312;DHT22;5201;48.776;9.128;2024-03-23T15:14:37;8.00;99.90
10312;DHT22;5201;48.776;9.128;2024-03-23T15:17:02;8.30;99.90
10312;DHT22;5201;48.776;9.128;2024-03-23T15:19:32;8.30;99.90
10312;DHT22;5201;48.776;9.128;2024-03-23T15:21:58;8.30;99.90
10312;DHT22;5201;48.776;9.128;2024-03-23T15:24:23;9.10;99.90
10312;DHT22;5201;48.776;9.128;2024-03-23T15:26:49;8.60;99.90
10312;DHT22;5201;48.776;9.128;2024-03-23T15:29:15;8.60;99.90
10312;DHT22;5201;48.776;9.128;2024-03-23T15:31:44;8.60;99.90
10312;DHT22;5201;48.776;9.128;2024-03-23T15:34:11;8.50;99.90
10312;DHT22;5201;48.776;9.128;2024-03-23T15:36:37;8.50;99.90
10312;DHT22;5201;48.776;9.128;2024-03-23T15:39:06;8.20;99.90
10312;DHT22;5201;48.776;9.128;2024-03-23T15:41:32;8.60;99.90
10312;DHT22;5201;48.776;9.128;2024-03-23T15:43:59;8.70;99.90
10312;DHT22;5201;48.776;9.128;2024-03-23T15:46:25;8.70;99.90
10312;DHT22;5201;48.776;9.128;2024-03-23T15:48:50;8.50;99.90
10312;DHT22;5201;48.776;9.128;2024-03-23T15:51:16;8.60;99.90
10312;DHT22;5201;48.776;9.128;2024-03-23T15:53:43;8.60;99.90
10312;DHT22;5201;48.776;9.128;2024-03-23T15:56:09;8.70;99.90
10312;DHT22;5201;48.776;9.128;2024-03-23T15:58:35;8.80;99.90
10312;DHT22;5201;48.776;9.128;2024-03-23T16:01:01;8.70;99.90
10312;DHT22;5201;48.776;9.128;2024-03-23T16:03:27;8.80;99.90
10312;DHT22;5201;48.776;9.128;2024-03-23T16:05:53;9.00;99.90
10312;DHT22;5201;48.776;9.128;2024-03-23T16:08:19;8.40;99.90
10312;DHT22;5201;48.776;9.128;2024-03-23T16:10:45;8.50;99.90
10312;DHT22;5201;48.776;9.128;2024-03-23T16:13:10;8.40;99.90
10312;DHT22;5201;48.776;9.128;2024-03-23T16:15:36;8.50;99.90
10312;DHT22;5201;48.776;9.128;2024-03-23T16:18:02;8.60;99.90
10312;DHT22;5201;48.776;9.128;2024-03-23T16:20:27;8.50;99.90
10312;DHT22;5201;48.776;9.128;2024-03-23T16:22:53;8.50;99.90
10312;DHT22;5201;48.776;9.128;2024-03-23T16:25:19;8.40;99.90
10312;DHT22;5201;48.776;9.128;2024-03-23T16:27:44;8.00;99.90
10312;DHT22;5201;48.776;9.128;2024-03-23T16:30:11;8.00;99.90
10312;DHT22;5201;48.776;9.128;2024-03-23T16:32:37;7.90;99.90
10312;DHT22;5201;48.776;9.128;2024-03-23T16:35:04;8.00;99.90
10312;DHT22;5201;48.776;9.128;2024-03-23T16:37:30;8.10;99.90
10312;DHT22;5201;48.776;9.128;2024-03-23T16:39:56;8.10;99.90
10312;DHT22;5201;48.776;9.128;2024-03-23T16:42:22;8.10;99.90
10312;DHT22;5201;48.776;9.128;2024-03-23T16:44:47;8.10;99.90
10312;DHT22;5201;48.776;9.128;2024-03-23T16:47:13;8.10;99.90
10312;DHT22;5201;48.776;9.128;2024-03-23T16:49:38;8.10;99.90
10312;DHT22;5201;48.776;9.128;2024-03-23T16:52:04;8.10;99.90
10312;DHT22;5201;48.776;9.128;2024-03-23T16:54:30;7.70;99.90
10312;DHT22;5201;48.776;9.128;2024-03-23T16:56:56;7.60;99.90